^^
Saratoga-Weather Station Historical Data
Daily Summary for June 2, 2020 Units:  Both    English   Metric
Daily Weekly Monthly Yearly Custom
  High: Low: Average:
Temperature: 55.2 °F /  12.9 °C 29.7 °F /  -1.3 °C 43.3 °F /  6.3 °C
Dew Point: 32.9 °F /  0.5 °C 24.4 °F /  -4.2 °C 28.8 °F /  -1.8 °C
Humidity: 83% 36% 59%
Wind Speed: 12.1mph /  19.5km/h - 2.4mph /  3.9km/h
Wind Gust: 15mph /  24.1km/h - -
Wind- - WSW
Pressure: 30 in /  1015.6 hPa 29.9 in /  1011.2 hPa -
Precipitation: 0.01 in /  0.2 mm    
Historical Graphs
 
 
Tabular Data for June 2, 2020
Time Temperature Dew Point Pressure Wind Wind Speed Wind Gust Humidity Rainfall Rate (Hourly) solar
00:00 36.3 °F /  2.4 °C 25.3 °F /  -3.7 °C 30in /  1015.6hPa Calm   1mph /  1.6km/h 64% 0in /  0.0mm 0 W/m2
00:05 36.1 °F /  2.3 °C 25.5 °F /  -3.6 °C 30in /  1015.6hPa West 2mph /  3.2km/h 2mph /  3.2km/h 65% 0in /  0.0mm 0 W/m2
00:10 36 °F /  2.2 °C 25.3 °F /  -3.7 °C 30in /  1015.6hPa Calm     65% 0in /  0.0mm 0 W/m2
00:15 36 °F /  2.2 °C 25.3 °F /  -3.7 °C 30in /  1015.6hPa Calm   1mph /  1.6km/h 65% 0in /  0.0mm 0 W/m2
00:20 36 °F /  2.2 °C 25.3 °F /  -3.7 °C 30in /  1015.6hPa Calm     65% 0in /  0.0mm 0 W/m2
00:25 36 °F /  2.2 °C 25.3 °F /  -3.7 °C 30in /  1015.6hPa Calm     65% 0in /  0.0mm 0 W/m2
00:30 35.8 °F /  2.1 °C 24.8 °F /  -4 °C 30in /  1015.6hPa Calm     64% 0in /  0.0mm 0 W/m2
00:35 35.8 °F /  2.1 °C 25.2 °F /  -3.8 °C 30in /  1015.2hPa Calm     65% 0in /  0.0mm 0 W/m2
00:40 35.8 °F /  2.1 °C 25.2 °F /  -3.8 °C 30in /  1015.6hPa NW 0.9mph /  1.4km/h 1mph /  1.6km/h 65% 0in /  0.0mm 0 W/m2
00:45 35.8 °F /  2.1 °C 25.2 °F /  -3.8 °C 30in /  1015.6hPa Calm   1mph /  1.6km/h 65% 0in /  0.0mm 0 W/m2
00:50 35.8 °F /  2.1 °C 25.2 °F /  -3.8 °C 30in /  1015.6hPa Calm   1mph /  1.6km/h 65% 0in /  0.0mm 0 W/m2
00:55 35.6 °F /  2 °C 25.3 °F /  -3.7 °C 30in /  1015.6hPa West 2mph /  3.2km/h 2mph /  3.2km/h 66% 0in /  0.0mm 0 W/m2
01:00 35.4 °F /  1.9 °C 25.2 °F /  -3.8 °C 30in /  1015.6hPa Calm     66% 0in /  0.0mm 0 W/m2
01:05 35.2 °F /  1.8 °C 25.3 °F /  -3.7 °C 30in /  1015.6hPa Calm     67% 0in /  0.0mm 0 W/m2
01:10 35.2 °F /  1.8 °C 25.3 °F /  -3.7 °C 30in /  1015.6hPa Calm     67% 0in /  0.0mm 0 W/m2
01:15 35.1 °F /  1.7 °C 25.2 °F /  -3.8 °C 30in /  1015.6hPa Calm     67% 0in /  0.0mm 0 W/m2
01:20 34.9 °F /  1.6 °C 25.3 °F /  -3.7 °C 30in /  1015.6hPa Calm     68% 0in /  0.0mm 0 W/m2
01:25 34.9 °F /  1.6 °C 25.7 °F /  -3.5 °C 30in /  1015.6hPa Calm     69% 0in /  0.0mm 0 W/m2
01:30 34.9 °F /  1.6 °C 26.4 °F /  -3.1 °C 30in /  1015.2hPa Calm   1mph /  1.6km/h 71% 0in /  0.0mm 0 W/m2
01:35 35.1 °F /  1.7 °C 26.6 °F /  -3 °C 30in /  1015.2hPa Calm     71% 0in /  0.0mm 0 W/m2
01:41 35.2 °F /  1.8 °C 26.4 °F /  -3.1 °C 30in /  1015.2hPa West 0.9mph /  1.4km/h 1mph /  1.6km/h 70% 0in /  0.0mm 0 W/m2
01:46 35.4 °F /  1.9 °C 26.6 °F /  -3 °C 30in /  1015.2hPa West 0.9mph /  1.4km/h 2mph /  3.2km/h 70% 0in /  0.0mm 0 W/m2
01:51 35.4 °F /  1.9 °C 26.2 °F /  -3.2 °C 30in /  1015.2hPa Calm   1mph /  1.6km/h 69% 0in /  0.0mm 0 W/m2
01:56 35.8 °F /  2.1 °C 26.6 °F /  -3 °C 30in /  1015.2hPa Calm   1mph /  1.6km/h 69% 0in /  0.0mm 0 W/m2
02:01 35.8 °F /  2.1 °C 26.6 °F /  -3 °C 30in /  1015.2hPa Calm   1mph /  1.6km/h 69% 0in /  0.0mm 0 W/m2
02:06 35.8 °F /  2.1 °C 26.6 °F /  -3 °C 30in /  1015.2hPa Calm     69% 0in /  0.0mm 0 W/m2
02:11 35.8 °F /  2.1 °C 26.6 °F /  -3 °C 30in /  1015.2hPa Calm   1mph /  1.6km/h 69% 0in /  0.0mm 0 W/m2
02:16 35.6 °F /  2 °C 26.8 °F /  -2.9 °C 30in /  1015.2hPa Calm   1mph /  1.6km/h 70% 0in /  0.0mm 0 W/m2
02:21 35.4 °F /  1.9 °C 26.2 °F /  -3.2 °C 30in /  1015.2hPa West 0.9mph /  1.4km/h 1mph /  1.6km/h 69% 0in /  0.0mm 0 W/m2
02:26 35.4 °F /  1.9 °C 26.6 °F /  -3 °C 30in /  1015.2hPa Calm   2mph /  3.2km/h 70% 0in /  0.0mm 0 W/m2
02:31 35.2 °F /  1.8 °C 26.4 °F /  -3.1 °C 30in /  1015.2hPa Calm     70% 0in /  0.0mm 0 W/m2
02:36 35.2 °F /  1.8 °C 26.4 °F /  -3.1 °C 30in /  1015.2hPa West 2mph /  3.2km/h 2mph /  3.2km/h 70% 0in /  0.0mm 0 W/m2
02:41 35.2 °F /  1.8 °C 26.8 °F /  -2.9 °C 30in /  1015.2hPa Calm   1mph /  1.6km/h 71% 0in /  0.0mm 0 W/m2
02:46 35.2 °F /  1.8 °C 26.4 °F /  -3.1 °C 30in /  1015.2hPa Calm     70% 0in /  0.0mm 0 W/m2
02:51 35.4 °F /  1.9 °C 26.6 °F /  -3 °C 30in /  1014.9hPa Calm   3mph /  4.8km/h 70% 0in /  0.0mm 0 W/m2
02:56 35.4 °F /  1.9 °C 26.6 °F /  -3 °C 30in /  1014.9hPa Calm     70% 0in /  0.0mm 0 W/m2
03:01 35.2 °F /  1.8 °C 26.4 °F /  -3.1 °C 30in /  1014.9hPa SW 0.9mph /  1.4km/h 1mph /  1.6km/h 70% 0in /  0.0mm 0 W/m2
03:06 35.1 °F /  1.7 °C 26.6 °F /  -3 °C 30in /  1014.9hPa Calm   1mph /  1.6km/h 71% 0in /  0.0mm 0 W/m2
03:11 35.1 °F /  1.7 °C 26.6 °F /  -3 °C 30in /  1014.9hPa Calm     71% 0in /  0.0mm 0 W/m2
03:16 34.9 °F /  1.6 °C 26.4 °F /  -3.1 °C 30in /  1014.9hPa Calm     71% 0in /  0.0mm 0 W/m2
03:21 34.7 °F /  1.5 °C 26.2 °F /  -3.2 °C 30in /  1014.9hPa Calm     71% 0in /  0.0mm 0 W/m2
03:26 34.5 °F /  1.4 °C 26.1 °F /  -3.3 °C 30in /  1014.9hPa SW 0.9mph /  1.4km/h 1mph /  1.6km/h 71% 0in /  0.0mm 0 W/m2
03:31 34.5 °F /  1.4 °C 26.1 °F /  -3.3 °C 30in /  1014.9hPa Calm   1mph /  1.6km/h 71% 0in /  0.0mm 0 W/m2
03:36 34.3 °F /  1.3 °C 26.2 °F /  -3.2 °C 30in /  1014.6hPa Calm   1mph /  1.6km/h 72% 0in /  0.0mm 0 W/m2
03:41 34.3 °F /  1.3 °C 26.2 °F /  -3.2 °C 30in /  1014.6hPa Calm   1mph /  1.6km/h 72% 0in /  0.0mm 0 W/m2
03:46 34.3 °F /  1.3 °C 26.2 °F /  -3.2 °C 30in /  1014.6hPa SW 0.9mph /  1.4km/h 1mph /  1.6km/h 72% 0in /  0.0mm 0 W/m2
03:51 34.2 °F /  1.2 °C 26.1 °F /  -3.3 °C 30in /  1014.6hPa Calm   1mph /  1.6km/h 72% 0in /  0.0mm 0 W/m2
03:56 34.2 °F /  1.2 °C 26.1 °F /  -3.3 °C 30in /  1014.6hPa Calm   1mph /  1.6km/h 72% 0in /  0.0mm 0 W/m2
04:01 34.2 °F /  1.2 °C 26.4 °F /  -3.1 °C 30in /  1014.6hPa Calm     73% 0in /  0.0mm 0 W/m2
04:06 34.2 °F /  1.2 °C 26.4 °F /  -3.1 °C 30in /  1014.6hPa Calm     73% 0in /  0.0mm 0 W/m2
04:11 34 °F /  1.1 °C 26.2 °F /  -3.2 °C 30in /  1014.6hPa Calm     73% 0in /  0.0mm 0 W/m2
04:16 33.8 °F /  1 °C 26.1 °F /  -3.3 °C 30in /  1014.6hPa Calm   1mph /  1.6km/h 73% 0in /  0.0mm 0 W/m2
04:21 33.6 °F /  0.9 °C 25.9 °F /  -3.4 °C 30in /  1014.6hPa Calm     73% 0in /  0.0mm 0 W/m2
04:26 33.4 °F /  0.8 °C 26.1 °F /  -3.3 °C 30in /  1014.6hPa Calm     74% 0in /  0.0mm 0 W/m2
04:31 33.3 °F /  0.7 °C 25.9 °F /  -3.4 °C 30in /  1014.6hPa Calm     74% 0in /  0.0mm 0 W/m2
04:36 33.1 °F /  0.6 °C 26.1 °F /  -3.3 °C 30in /  1014.6hPa Calm     75% 0in /  0.0mm 0 W/m2
04:41 32.7 °F /  0.4 °C 25.7 °F /  -3.5 °C 30in /  1014.6hPa SW 0.9mph /  1.4km/h 1mph /  1.6km/h 75% 0in /  0.0mm 0 W/m2
04:46 32.7 °F /  0.4 °C 25.7 °F /  -3.5 °C 30in /  1014.6hPa Calm     75% 0in /  0.0mm 0 W/m2
04:52 32.7 °F /  0.4 °C 25.7 °F /  -3.5 °C 30in /  1014.2hPa Calm   1mph /  1.6km/h 75% 0in /  0.0mm 0 W/m2
04:57 32.5 °F /  0.3 °C 25.5 °F /  -3.6 °C 30in /  1014.2hPa Calm     75% 0in /  0.0mm 0 W/m2
05:02 32.4 °F /  0.2 °C 25.3 °F /  -3.7 °C 30in /  1014.2hPa Calm   1mph /  1.6km/h 75% 0in /  0.0mm 0 W/m2
05:07 32.2 °F /  0.1 °C 25.2 °F /  -3.8 °C 30in /  1014.2hPa Calm     75% 0in /  0.0mm 0 W/m2
05:12 32 °F /  0 °C 25.3 °F /  -3.7 °C 30in /  1014.2hPa Calm     76% 0in /  0.0mm 0 W/m2
05:17 31.8 °F /  -0.1 °C 25.2 °F /  -3.8 °C 30in /  1014.2hPa Calm     76% 0in /  0.0mm 0 W/m2
05:22 31.6 °F /  -0.2 °C 25 °F /  -3.9 °C 30in /  1014.2hPa Calm     76% 0in /  0.0mm 0 W/m2
05:27 31.6 °F /  -0.2 °C 25.3 °F /  -3.7 °C 30in /  1014.2hPa Calm     77% 0in /  0.0mm 0 W/m2
05:32 31.5 °F /  -0.3 °C 25.2 °F /  -3.8 °C 30in /  1014.2hPa Calm     77% 0in /  0.0mm 0 W/m2
05:37 31.5 °F /  -0.3 °C 25.2 °F /  -3.8 °C 30in /  1014.2hPa Calm     77% 0in /  0.0mm 0 W/m2
05:42 31.3 °F /  -0.4 °C 25.2 °F /  -3.8 °C 30in /  1014.2hPa Calm     78% 0in /  0.0mm 0 W/m2
05:47 31.3 °F /  -0.4 °C 25.2 °F /  -3.8 °C 30in /  1014.2hPa Calm     78% 0in /  0.0mm 0 W/m2
05:52 31.1 °F /  -0.5 °C 25 °F /  -3.9 °C 30in /  1014.2hPa Calm     78% 0in /  0.0mm 0 W/m2
05:57 30.9 °F /  -0.6 °C 24.8 °F /  -4 °C 30in /  1014.2hPa Calm   1mph /  1.6km/h 78% 0in /  0.0mm 0 W/m2
06:02 30.9 °F /  -0.6 °C 24.8 °F /  -4 °C 30in /  1014.2hPa Calm     78% 0in /  0.0mm 0 W/m2
06:07 30.9 °F /  -0.6 °C 24.8 °F /  -4 °C 30in /  1014.2hPa Calm   1mph /  1.6km/h 78% 0in /  0.0mm 0 W/m2
06:12 30.7 °F /  -0.7 °C 24.6 °F /  -4.1 °C 30in /  1014.2hPa Calm     78% 0in /  0.0mm 0 W/m2
06:17 30.7 °F /  -0.7 °C 25 °F /  -3.9 °C 30in /  1014.2hPa Calm     79% 0in /  0.0mm 0 W/m2
06:22 30.6 °F /  -0.8 °C 24.8 °F /  -4 °C 30in /  1014.2hPa Calm     79% 0in /  0.0mm 0 W/m2
06:27 30.6 °F /  -0.8 °C 24.8 °F /  -4 °C 30in /  1014.2hPa Calm     79% 0in /  0.0mm 0 W/m2
06:32 30.4 °F /  -0.9 °C 24.6 °F /  -4.1 °C 30in /  1014.2hPa Calm     79% 0in /  0.0mm 0 W/m2
06:37 30.2 °F /  -1 °C 24.4 °F /  -4.2 °C 30in /  1014.2hPa Calm     79% 0in /  0.0mm 0 W/m2
06:42 30.2 °F /  -1 °C 24.8 °F /  -4 °C 30in /  1014.2hPa Calm     80% 0in /  0.0mm 0 W/m2
06:47 30 °F /  -1.1 °C 24.6 °F /  -4.1 °C 30in /  1014.2hPa Calm     80% 0in /  0.0mm 0 W/m2
06:52 30 °F /  -1.1 °C 24.6 °F /  -4.1 °C 30in /  1014.2hPa Calm     80% 0in /  0.0mm 0 W/m2
06:57 29.8 °F /  -1.2 °C 24.8 °F /  -4 °C 30in /  1014.2hPa Calm     81% 0in /  0.0mm 0 W/m2
07:02 29.8 °F /  -1.2 °C 24.8 °F /  -4 °C 30in /  1014.2hPa Calm     81% 0in /  0.0mm 0 W/m2
07:07 29.8 °F /  -1.2 °C 24.8 °F /  -4 °C 30in /  1014.2hPa Calm     81% 0in /  0.0mm 0 W/m2
07:13 29.8 °F /  -1.2 °C 24.8 °F /  -4 °C 30in /  1014.2hPa Calm     81% 0in /  0.0mm 5 W/m2
07:18 29.8 °F /  -1.2 °C 24.8 °F /  -4 °C 30in /  1014.2hPa Calm     81% 0in /  0.0mm 7 W/m2
07:23 29.7 °F /  -1.3 °C 24.6 °F /  -4.1 °C 30in /  1014.2hPa Calm     81% 0in /  0.0mm 11 W/m2
07:28 29.7 °F /  -1.3 °C 24.8 °F /  -4 °C 30in /  1014.2hPa Calm     82% 0in /  0.0mm 12 W/m2
07:33 29.7 °F /  -1.3 °C 24.8 °F /  -4 °C 30in /  1014.2hPa Calm     82% 0in /  0.0mm 16 W/m2
07:38 29.7 °F /  -1.3 °C 24.8 °F /  -4 °C 30in /  1014.2hPa Calm     82% 0in /  0.0mm 18 W/m2
07:43 29.7 °F /  -1.3 °C 24.8 °F /  -4 °C 30in /  1014.2hPa Calm     82% 0in /  0.0mm 19 W/m2
07:48 29.7 °F /  -1.3 °C 24.8 °F /  -4 °C 30in /  1014.2hPa Calm     82% 0in /  0.0mm 23 W/m2
07:53 29.7 °F /  -1.3 °C 24.8 °F /  -4 °C 30in /  1014.2hPa Calm     82% 0in /  0.0mm 23 W/m2
07:58 29.7 °F /  -1.3 °C 24.8 °F /  -4 °C 30in /  1014.6hPa Calm     82% 0in /  0.0mm 26 W/m2
08:03 29.8 °F /  -1.2 °C 25.3 °F /  -3.7 °C 30in /  1014.6hPa Calm     83% 0in /  0.0mm 28 W/m2
08:08 30 °F /  -1.1 °C 25.2 °F /  -3.8 °C 30in /  1014.6hPa Calm     82% 0in /  0.0mm 30 W/m2
08:13 30.2 °F /  -1 °C 25.3 °F /  -3.7 °C 30in /  1014.6hPa Calm     82% 0in /  0.0mm 32 W/m2
08:18 30.4 °F /  -0.9 °C 25.5 °F /  -3.6 °C 30in /  1014.6hPa Calm     82% 0in /  0.0mm 114 W/m2
08:23 30.4 °F /  -0.9 °C 25.5 °F /  -3.6 °C 30in /  1014.6hPa Calm     82% 0in /  0.0mm 141 W/m2
08:28 30.6 °F /  -0.8 °C 25.7 °F /  -3.5 °C 30in /  1014.2hPa Calm     82% 0in /  0.0mm 153 W/m2
08:33 30.9 °F /  -0.6 °C 26.1 °F /  -3.3 °C 30in /  1014.2hPa Calm     82% 0in /  0.0mm 169 W/m2
08:38 31.5 °F /  -0.3 °C 26.6 °F /  -3 °C 30in /  1014.2hPa Calm   1mph /  1.6km/h 82% 0in /  0.0mm 181 W/m2
08:43 32.2 °F /  0.1 °C 27 °F /  -2.8 °C 30in /  1014.2hPa SSW 0.9mph /  1.4km/h 1mph /  1.6km/h 81% 0in /  0.0mm 193 W/m2
08:48 33.3 °F /  0.7 °C 27.7 °F /  -2.4 °C 30in /  1014.2hPa Calm     80% 0in /  0.0mm 209 W/m2
08:53 34.3 °F /  1.3 °C 28.2 °F /  -2.1 °C 30in /  1014.2hPa Calm     78% 0in /  0.0mm 218 W/m2
08:58 35.1 °F /  1.7 °C 28.2 °F /  -2.1 °C 30in /  1014.2hPa Calm     76% 0in /  0.0mm 230 W/m2
09:03 35.8 °F /  2.1 °C 28 °F /  -2.2 °C 30in /  1014.2hPa ESE 0.9mph /  1.4km/h 2mph /  3.2km/h 73% 0in /  0.0mm 244 W/m2
09:08 36.7 °F /  2.6 °C 28.6 °F /  -1.9 °C 30in /  1014.2hPa ESE 2mph /  3.2km/h 2mph /  3.2km/h 72% 0in /  0.0mm 258 W/m2
09:14 37 °F /  2.8 °C 28.2 °F /  -2.1 °C 30in /  1014.2hPa Calm   1mph /  1.6km/h 70% 0in /  0.0mm 269 W/m2
09:19 37.6 °F /  3.1 °C 28.4 °F /  -2 °C 30in /  1014.2hPa Calm     69% 0in /  0.0mm 271 W/m2
09:24 37.9 °F /  3.3 °C 28 °F /  -2.2 °C 30in /  1014.2hPa Calm   1mph /  1.6km/h 67% 0in /  0.0mm 292 W/m2
09:29 38.3 °F /  3.5 °C 28.2 °F /  -2.1 °C 30in /  1014.2hPa Calm     67% 0in /  0.0mm 151 W/m2
09:34 38.7 °F /  3.7 °C 28.2 °F /  -2.1 °C 30in /  1014.2hPa WNW 0.9mph /  1.4km/h 2mph /  3.2km/h 66% 0in /  0.0mm 51 W/m2
09:39 39 °F /  3.9 °C 28.6 °F /  -1.9 °C 30in /  1014.2hPa Calm   1mph /  1.6km/h 66% 0in /  0.0mm 327 W/m2
09:44 39.7 °F /  4.3 °C 28.9 °F /  -1.7 °C 30in /  1014.2hPa NW 2mph /  3.2km/h 2mph /  3.2km/h 65% 0in /  0.0mm 341 W/m2
09:49 40.3 °F /  4.6 °C 29.1 °F /  -1.6 °C 30in /  1014.2hPa Calm     64% 0in /  0.0mm 355 W/m2
09:54 41 °F /  5 °C 29.3 °F /  -1.5 °C 30in /  1014.2hPa Calm     63% 0in /  0.0mm 371 W/m2
09:59 41.5 °F /  5.3 °C 28.8 °F /  -1.8 °C 30in /  1014.2hPa NNW 2mph /  3.2km/h 2mph /  3.2km/h 60% 0in /  0.0mm 381 W/m2
10:04 42.1 °F /  5.6 °C 29.7 °F /  -1.3 °C 30in /  1014.2hPa NNE 0.9mph /  1.4km/h 2mph /  3.2km/h 61% 0in /  0.0mm 394 W/m2
10:09 43 °F /  6.1 °C 30.4 °F /  -0.9 °C 30in /  1014.2hPa ESE 2.9mph /  4.7km/h 3mph /  4.8km/h 61% 0in /  0.0mm 404 W/m2
10:14 43.5 °F /  6.4 °C 29.7 °F /  -1.3 °C 30in /  1014.2hPa ESE 2mph /  3.2km/h 2mph /  3.2km/h 58% 0in /  0.0mm 417 W/m2
10:19 44.2 °F /  6.8 °C 30.4 °F /  -0.9 °C 30in /  1014.2hPa ESE 0.9mph /  1.4km/h 2mph /  3.2km/h 58% 0in /  0.0mm 427 W/m2
10:24 44.8 °F /  7.1 °C 30.6 °F /  -0.8 °C 30in /  1014.2hPa East 2.9mph /  4.7km/h 3mph /  4.8km/h 57% 0in /  0.0mm 439 W/m2
10:29 45.3 °F /  7.4 °C 30.6 °F /  -0.8 °C 30in /  1014.2hPa ESE 2mph /  3.2km/h 2mph /  3.2km/h 56% 0in /  0.0mm 450 W/m2
10:34 46 °F /  7.8 °C 30.4 °F /  -0.9 °C 30in /  1014.2hPa East 0.9mph /  1.4km/h 3mph /  4.8km/h 54% 0in /  0.0mm 461 W/m2
10:39 45.9 °F /  7.7 °C 30.2 °F /  -1 °C 30in /  1014.2hPa East 2.9mph /  4.7km/h 3mph /  4.8km/h 54% 0in /  0.0mm 469 W/m2
10:45 46.2 °F /  7.9 °C 30.6 °F /  -0.8 °C 30in /  1014.2hPa ENE 2mph /  3.2km/h 3mph /  4.8km/h 54% 0in /  0.0mm 478 W/m2
10:50 46.6 °F /  8.1 °C 29.8 °F /  -1.2 °C 29.9in /  1013.9hPa ENE 0.9mph /  1.4km/h 3mph /  4.8km/h 52% 0in /  0.0mm 489 W/m2
10:55 46.9 °F /  8.3 °C 30.2 °F /  -1 °C 29.9in /  1013.9hPa South 2mph /  3.2km/h 3mph /  4.8km/h 52% 0in /  0.0mm 503 W/m2
11:00 47.7 °F /  8.7 °C 30.9 °F /  -0.6 °C 29.9in /  1013.9hPa ENE 2mph /  3.2km/h 4mph /  6.4km/h 52% 0in /  0.0mm 513 W/m2
11:05 48 °F /  8.9 °C 30.2 °F /  -1 °C 29.9in /  1013.9hPa SSE 2.9mph /  4.7km/h 5mph /  8km/h 50% 0in /  0.0mm 522 W/m2
11:10 48.9 °F /  9.4 °C 30 °F /  -1.1 °C 29.9in /  1013.9hPa Calm   3mph /  4.8km/h 48% 0in /  0.0mm 531 W/m2
11:15 49.5 °F /  9.7 °C 30.6 °F /  -0.8 °C 29.9in /  1013.9hPa NE 2.9mph /  4.7km/h 5mph /  8km/h 48% 0in /  0.0mm 540 W/m2
11:20 49.3 °F /  9.6 °C 30.4 °F /  -0.9 °C 29.9in /  1013.9hPa ENE 2mph /  3.2km/h 6mph /  9.7km/h 48% 0in /  0.0mm 548 W/m2
11:25 48.9 °F /  9.4 °C 30 °F /  -1.1 °C 29.9in /  1013.9hPa NNE 0.9mph /  1.4km/h 2mph /  3.2km/h 48% 0in /  0.0mm 554 W/m2
11:30 48.7 °F /  9.3 °C 29.5 °F /  -1.4 °C 29.9in /  1013.9hPa ESE 2mph /  3.2km/h 6mph /  9.7km/h 47% 0in /  0.0mm 563 W/m2
11:35 49.3 °F /  9.6 °C 30.4 °F /  -0.9 °C 29.9in /  1013.9hPa ENE 0.9mph /  1.4km/h 4mph /  6.4km/h 48% 0in /  0.0mm 571 W/m2
11:40 49.8 °F /  9.9 °C 30.4 °F /  -0.9 °C 29.9in /  1013.5hPa ESE 4mph /  6.4km/h 6mph /  9.7km/h 47% 0in /  0.0mm 578 W/m2
11:45 50.5 °F /  10.3 °C 30 °F /  -1.1 °C 29.9in /  1013.5hPa East 0.9mph /  1.4km/h 3mph /  4.8km/h 45% 0in /  0.0mm 587 W/m2
11:50 50.9 °F /  10.5 °C 30.4 °F /  -0.9 °C 29.9in /  1013.5hPa ESE 2.9mph /  4.7km/h 3mph /  4.8km/h 45% 0in /  0.0mm 592 W/m2
11:55 51.4 °F /  10.8 °C 30.7 °F /  -0.7 °C 29.9in /  1013.5hPa ENE 4mph /  6.4km/h 6mph /  9.7km/h 45% 0in /  0.0mm 601 W/m2
12:00 51.4 °F /  10.8 °C 29.7 °F /  -1.3 °C 29.9in /  1013.5hPa SE 2mph /  3.2km/h 7mph /  11.3km/h 43% 0in /  0.0mm 610 W/m2
12:05 51.4 °F /  10.8 °C 29.7 °F /  -1.3 °C 29.9in /  1013.5hPa ENE 2mph /  3.2km/h 4mph /  6.4km/h 43% 0in /  0.0mm 615 W/m2
12:10 51.6 °F /  10.9 °C 29.8 °F /  -1.2 °C 29.9in /  1013.5hPa NW 0.9mph /  1.4km/h 2mph /  3.2km/h 43% 0in /  0.0mm 621 W/m2
12:15 52.3 °F /  11.3 °C 29.8 °F /  -1.2 °C 29.9in /  1013.5hPa Calm   3mph /  4.8km/h 42% 0in /  0.0mm 628 W/m2
12:20 52.9 °F /  11.6 °C 29.8 °F /  -1.2 °C 29.9in /  1013.5hPa NNE 0.9mph /  1.4km/h 2mph /  3.2km/h 41% 0in /  0.0mm 631 W/m2
12:25 52.7 °F /  11.5 °C 29.7 °F /  -1.3 °C 29.9in /  1013.5hPa ENE 0.9mph /  1.4km/h 1mph /  1.6km/h 41% 0in /  0.0mm 636 W/m2
12:30 52.5 °F /  11.4 °C 26.2 °F /  -3.2 °C 29.9in /  1013.5hPa North 2.9mph /  4.7km/h 4mph /  6.4km/h 36% 0in /  0.0mm 643 W/m2
12:35 52.5 °F /  11.4 °C 26.2 °F /  -3.2 °C 29.9in /  1013.5hPa WSW 4mph /  6.4km/h 8mph /  12.9km/h 36% 0in /  0.0mm 647 W/m2
12:40 52.3 °F /  11.3 °C 26.8 °F /  -2.9 °C 29.9in /  1013.5hPa West 6.9mph /  11.1km/h 7mph /  11.3km/h 37% 0in /  0.0mm 650 W/m2
12:45 52.5 °F /  11.4 °C 27 °F /  -2.8 °C 29.9in /  1013.5hPa NW 4.9mph /  7.9km/h 7mph /  11.3km/h 37% 0in /  0.0mm 650 W/m2
12:50 52.3 °F /  11.3 °C 27.5 °F /  -2.5 °C 29.9in /  1013.5hPa WNW 2.9mph /  4.7km/h 7mph /  11.3km/h 38% 0in /  0.0mm 652 W/m2
12:55 52.5 °F /  11.4 °C 28.2 °F /  -2.1 °C 29.9in /  1013.2hPa WNW 8.1mph /  13km/h 8mph /  12.9km/h 39% 0in /  0.0mm 654 W/m2
13:00 52.5 °F /  11.4 °C 27 °F /  -2.8 °C 29.9in /  1013.2hPa WNW 2mph /  3.2km/h 2mph /  3.2km/h 37% 0in /  0.0mm 657 W/m2
13:05 52.3 °F /  11.3 °C 28 °F /  -2.2 °C 29.9in /  1013.2hPa WSW 6mph /  9.7km/h 10mph /  16.1km/h 39% 0in /  0.0mm 663 W/m2
13:10 52.5 °F /  11.4 °C 27.7 °F /  -2.4 °C 29.9in /  1013.2hPa WNW 2.9mph /  4.7km/h 3mph /  4.8km/h 38% 0in /  0.0mm 664 W/m2
13:15 52.9 °F /  11.6 °C 28 °F /  -2.2 °C 29.9in /  1013.2hPa West 2mph /  3.2km/h 6mph /  9.7km/h 38% 0in /  0.0mm 668 W/m2
13:20 52.9 °F /  11.6 °C 28.6 °F /  -1.9 °C 29.9in /  1012.9hPa NW 2mph /  3.2km/h 4mph /  6.4km/h 39% 0in /  0.0mm 666 W/m2
13:25 53.1 °F /  11.7 °C 28.8 °F /  -1.8 °C 29.9in /  1012.9hPa WSW 2mph /  3.2km/h 4mph /  6.4km/h 39% 0in /  0.0mm 670 W/m2
13:30 53.1 °F /  11.7 °C 28 °F /  -2.2 °C 29.9in /  1012.9hPa SW 2.9mph /  4.7km/h 5mph /  8km/h 38% 0in /  0.0mm 671 W/m2
13:35 53.2 °F /  11.8 °C 29.5 °F /  -1.4 °C 29.9in /  1012.9hPa SW 0.9mph /  1.4km/h 1mph /  1.6km/h 40% 0in /  0.0mm 671 W/m2
13:40 54 °F /  12.2 °C 30.2 °F /  -1 °C 29.9in /  1012.9hPa WNW 2.9mph /  4.7km/h 8mph /  12.9km/h 40% 0in /  0.0mm 666 W/m2
13:45 54.1 °F /  12.3 °C 29.7 °F /  -1.3 °C 29.9in /  1012.9hPa NNW 2.9mph /  4.7km/h 6mph /  9.7km/h 39% 0in /  0.0mm 663 W/m2
13:50 54 °F /  12.2 °C 30.2 °F /  -1 °C 29.9in /  1012.9hPa ESE 4mph /  6.4km/h 4mph /  6.4km/h 40% 0in /  0.0mm 666 W/m2
13:56 54 °F /  12.2 °C 28.2 °F /  -2.1 °C 29.9in /  1012.5hPa WNW 2.9mph /  4.7km/h 8mph /  12.9km/h 37% 0in /  0.0mm 659 W/m2
14:01 54 °F /  12.2 °C 28.9 °F /  -1.7 °C 29.9in /  1012.5hPa WNW 4mph /  6.4km/h 9mph /  14.5km/h 38% 0in /  0.0mm 663 W/m2
14:06 53.8 °F /  12.1 °C 28 °F /  -2.2 °C 29.9in /  1012.5hPa WNW 2mph /  3.2km/h 9mph /  14.5km/h 37% 0in /  0.0mm 661 W/m2
14:11 54 °F /  12.2 °C 28.9 °F /  -1.7 °C 29.9in /  1012.5hPa NW 4.9mph /  7.9km/h 11mph /  17.7km/h 38% 0in /  0.0mm 656 W/m2
14:16 53.8 °F /  12.1 °C 28 °F /  -2.2 °C 29.9in /  1012.5hPa West 4mph /  6.4km/h 10mph /  16.1km/h 37% 0in /  0.0mm 645 W/m2
14:21 53.8 °F /  12.1 °C 28.8 °F /  -1.8 °C 29.9in /  1012.5hPa NW 4mph /  6.4km/h 7mph /  11.3km/h 38% 0in /  0.0mm 654 W/m2
14:26 54 °F /  12.2 °C 28.9 °F /  -1.7 °C 29.9in /  1012.5hPa NNW 2mph /  3.2km/h 6mph /  9.7km/h 38% 0in /  0.0mm 647 W/m2
14:31 54.3 °F /  12.4 °C 29.3 °F /  -1.5 °C 29.9in /  1012.2hPa NW 4.9mph /  7.9km/h 8mph /  12.9km/h 38% 0in /  0.0mm 645 W/m2
14:36 54.5 °F /  12.5 °C 28.8 °F /  -1.8 °C 29.9in /  1012.5hPa WNW 4.9mph /  7.9km/h 8mph /  12.9km/h 37% 0in /  0.0mm 640 W/m2
14:41 54.3 °F /  12.4 °C 29.3 °F /  -1.5 °C 29.9in /  1012.2hPa WNW 2mph /  3.2km/h 4mph /  6.4km/h 38% 0in /  0.0mm 635 W/m2
14:46 54.5 °F /  12.5 °C 29.5 °F /  -1.4 °C 29.9in /  1012.2hPa NNW 2.9mph /  4.7km/h 4mph /  6.4km/h 38% 0.01in /  0.2mm 631 W/m2
14:51 54.5 °F /  12.5 °C 28.8 °F /  -1.8 °C 29.9in /  1012.2hPa NNW 4mph /  6.4km/h 8mph /  12.9km/h 37% 0.01in /  0.2mm 622 W/m2
14:56 54.3 °F /  12.4 °C 29.3 °F /  -1.5 °C 29.9in /  1011.9hPa WNW 4mph /  6.4km/h 7mph /  11.3km/h 38% 0.01in /  0.2mm 624 W/m2
15:01 54.3 °F /  12.4 °C 28.6 °F /  -1.9 °C 29.9in /  1011.9hPa West 4mph /  6.4km/h 8mph /  12.9km/h 37% 0.01in /  0.2mm 617 W/m2
15:06 54.7 °F /  12.6 °C 30.9 °F /  -0.6 °C 29.9in /  1011.9hPa WSW 4mph /  6.4km/h 5mph /  8km/h 40% 0.01in /  0.2mm 613 W/m2
15:11 55.2 °F /  12.9 °C 30.7 °F /  -0.7 °C 29.9in /  1011.9hPa WSW 4.9mph /  7.9km/h 5mph /  8km/h 39% 0.01in /  0.2mm 608 W/m2
15:16 55.2 °F /  12.9 °C 29.5 °F /  -1.4 °C 29.9in /  1011.9hPa WNW 6mph /  9.7km/h 11mph /  17.7km/h 37% 0.01in /  0.2mm 601 W/m2
15:21 54.9 °F /  12.7 °C 29.1 °F /  -1.6 °C 29.9in /  1011.9hPa NW 4.9mph /  7.9km/h 7mph /  11.3km/h 37% 0.01in /  0.2mm 601 W/m2
15:26 54.9 °F /  12.7 °C 30.4 °F /  -0.9 °C 29.9in /  1011.9hPa West 2mph /  3.2km/h 4mph /  6.4km/h 39% 0.01in /  0.2mm 580 W/m2
15:31 55.2 °F /  12.9 °C 29.5 °F /  -1.4 °C 29.9in /  1011.9hPa WNW 2.9mph /  4.7km/h 7mph /  11.3km/h 37% 0.01in /  0.2mm 575 W/m2
15:36 55.2 °F /  12.9 °C 29.5 °F /  -1.4 °C 29.9in /  1011.9hPa NW 4.9mph /  7.9km/h 10mph /  16.1km/h 37% 0.01in /  0.2mm 564 W/m2
15:41 54.9 °F /  12.7 °C 29.1 °F /  -1.6 °C 29.9in /  1011.9hPa West 6.9mph /  11.1km/h 13mph /  20.9km/h 37% 0.01in /  0.2mm 557 W/m2
15:46 54.7 °F /  12.6 °C 29.5 °F /  -1.4 °C 29.9in /  1011.9hPa SW 6mph /  9.7km/h 13mph /  20.9km/h 38% 0in /  0.0mm 552 W/m2
15:51 54.7 °F /  12.6 °C 29.5 °F /  -1.4 °C 29.9in /  1011.9hPa West 6.9mph /  11.1km/h 11mph /  17.7km/h 38% 0in /  0.0mm 545 W/m2
15:56 54.9 °F /  12.7 °C 30.4 °F /  -0.9 °C 29.9in /  1011.9hPa West 4mph /  6.4km/h 13mph /  20.9km/h 39% 0in /  0.0mm 533 W/m2
16:01 55 °F /  12.8 °C 30.6 °F /  -0.8 °C 29.9in /  1011.9hPa NW 4mph /  6.4km/h 4mph /  6.4km/h 39% 0in /  0.0mm 522 W/m2
16:06 55.2 °F /  12.9 °C 30.7 °F /  -0.7 °C 29.9in /  1011.9hPa West 6mph /  9.7km/h 13mph /  20.9km/h 39% 0in /  0.0mm 508 W/m2
16:11 55 °F /  12.8 °C 30.6 °F /  -0.8 °C 29.9in /  1011.9hPa NW 0.9mph /  1.4km/h 4mph /  6.4km/h 39% 0in /  0.0mm 496 W/m2
16:16 55 °F /  12.8 °C 30.6 °F /  -0.8 °C 29.9in /  1011.9hPa NW 8.1mph /  13km/h 10mph /  16.1km/h 39% 0in /  0.0mm 468 W/m2
16:21 55 °F /  12.8 °C 31.1 °F /  -0.5 °C 29.9in /  1011.9hPa West 6mph /  9.7km/h 9mph /  14.5km/h 40% 0in /  0.0mm 482 W/m2
16:26 55 °F /  12.8 °C 30.6 °F /  -0.8 °C 29.9in /  1011.9hPa WNW 6mph /  9.7km/h 10mph /  16.1km/h 39% 0in /  0.0mm 468 W/m2
16:31 55 °F /  12.8 °C 31.1 °F /  -0.5 °C 29.9in /  1011.9hPa WNW 4mph /  6.4km/h 9mph /  14.5km/h 40% 0in /  0.0mm 457 W/m2
16:36 55 °F /  12.8 °C 31.1 °F /  -0.5 °C 29.9in /  1011.9hPa West 4mph /  6.4km/h 11mph /  17.7km/h 40% 0in /  0.0mm 434 W/m2
16:41 54.9 °F /  12.7 °C 30.4 °F /  -0.9 °C 29.9in /  1011.9hPa NW 2.9mph /  4.7km/h 11mph /  17.7km/h 39% 0in /  0.0mm 441 W/m2
16:46 54.9 °F /  12.7 °C 30.4 °F /  -0.9 °C 29.9in /  1011.5hPa WSW 6.9mph /  11.1km/h 12mph /  19.3km/h 39% 0in /  0.0mm 429 W/m2
16:51 54.9 °F /  12.7 °C 30.4 °F /  -0.9 °C 29.9in /  1011.5hPa NNW 4.9mph /  7.9km/h 6mph /  9.7km/h 39% 0in /  0.0mm 422 W/m2
16:56 54.9 °F /  12.7 °C 30.9 °F /  -0.6 °C 29.9in /  1011.5hPa West 12.1mph /  19.5km/h 15mph /  24.1km/h 40% 0in /  0.0mm 404 W/m2
17:01 54.7 °F /  12.6 °C 30.9 °F /  -0.6 °C 29.9in /  1011.5hPa West 6mph /  9.7km/h 6mph /  9.7km/h 40% 0in /  0.0mm 394 W/m2
17:06 54.5 °F /  12.5 °C 31.8 °F /  -0.1 °C 29.9in /  1011.5hPa NW 4mph /  6.4km/h 15mph /  24.1km/h 42% 0in /  0.0mm 387 W/m2
17:11 54.7 °F /  12.6 °C 32 °F /  0 °C 29.9in /  1011.9hPa SW 6mph /  9.7km/h 10mph /  16.1km/h 42% 0in /  0.0mm 378 W/m2
17:16 54.7 °F /  12.6 °C 32 °F /  0 °C 29.9in /  1011.5hPa West 4mph /  6.4km/h 7mph /  11.3km/h 42% 0in /  0.0mm 362 W/m2
17:21 54.7 °F /  12.6 °C 32 °F /  0 °C 29.9in /  1011.5hPa WNW 0.9mph /  1.4km/h 9mph /  14.5km/h 42% 0in /  0.0mm 360 W/m2
17:26 54.9 °F /  12.7 °C 30.9 °F /  -0.6 °C 29.9in /  1011.2hPa WSW 4.9mph /  7.9km/h 9mph /  14.5km/h 40% 0in /  0.0mm 339 W/m2
17:31 54.7 °F /  12.6 °C 30.9 °F /  -0.6 °C 29.9in /  1011.5hPa West 6.9mph /  11.1km/h 9mph /  14.5km/h 40% 0in /  0.0mm 338 W/m2
17:36 54.9 °F /  12.7 °C 30.9 °F /  -0.6 °C 29.9in /  1011.2hPa NNW 4mph /  6.4km/h 7mph /  11.3km/h 40% 0in /  0.0mm 322 W/m2
17:41 55 °F /  12.8 °C 31.8 °F /  -0.1 °C 29.9in /  1011.2hPa NW 8.1mph /  13km/h 9mph /  14.5km/h 41% 0in /  0.0mm 309 W/m2
17:46 54.9 °F /  12.7 °C 30.9 °F /  -0.6 °C 29.9in /  1011.2hPa NW 4.9mph /  7.9km/h 11mph /  17.7km/h 40% 0in /  0.0mm 297 W/m2
17:52 54.3 °F /  12.4 °C 31.6 °F /  -0.2 °C 29.9in /  1011.2hPa WNW 10.1mph /  16.3km/h 12mph /  19.3km/h 42% 0in /  0.0mm 283 W/m2
17:57 54 °F /  12.2 °C 32 °F /  0 °C 29.9in /  1011.2hPa West 8.1mph /  13km/h 12mph /  19.3km/h 43% 0in /  0.0mm 272 W/m2
18:02 54 °F /  12.2 °C 32 °F /  0 °C 29.9in /  1011.2hPa WSW 2.9mph /  4.7km/h 6mph /  9.7km/h 43% 0in /  0.0mm 250 W/m2
18:07 54 °F /  12.2 °C 32 °F /  0 °C 29.9in /  1011.2hPa NW 8.1mph /  13km/h 12mph /  19.3km/h 43% 0in /  0.0mm 241 W/m2
18:12 53.8 °F /  12.1 °C 32.4 °F /  0.2 °C 29.9in /  1011.5hPa NW 2.9mph /  4.7km/h 9mph /  14.5km/h 44% 0in /  0.0mm 223 W/m2
18:17 53.8 °F /  12.1 °C 32.4 °F /  0.2 °C 29.9in /  1011.2hPa NW 2mph /  3.2km/h 5mph /  8km/h 44% 0in /  0.0mm 216 W/m2
18:22 54 °F /  12.2 °C 32.5 °F /  0.3 °C 29.9in /  1011.5hPa West 2.9mph /  4.7km/h 7mph /  11.3km/h 44% 0in /  0.0mm 204 W/m2
18:27 53.8 °F /  12.1 °C 31.8 °F /  -0.1 °C 29.9in /  1011.5hPa WSW 4mph /  6.4km/h 9mph /  14.5km/h 43% 0in /  0.0mm 192 W/m2
18:32 53.8 °F /  12.1 °C 32.4 °F /  0.2 °C 29.9in /  1011.5hPa WSW 8.1mph /  13km/h 9mph /  14.5km/h 44% 0in /  0.0mm 178 W/m2
18:37 53.4 °F /  11.9 °C 32.5 °F /  0.3 °C 29.9in /  1011.5hPa WNW 4mph /  6.4km/h 4mph /  6.4km/h 45% 0in /  0.0mm 167 W/m2
18:42 53.4 °F /  11.9 °C 32 °F /  0 °C 29.9in /  1011.5hPa WSW 8.9mph /  14.3km/h 11mph /  17.7km/h 44% 0in /  0.0mm 153 W/m2
18:47 53.2 °F /  11.8 °C 31.8 °F /  -0.1 °C 29.9in /  1011.5hPa West 4mph /  6.4km/h 8mph /  12.9km/h 44% 0in /  0.0mm 135 W/m2
18:52 53.1 °F /  11.7 °C 31.6 °F /  -0.2 °C 29.9in /  1011.5hPa WNW 4mph /  6.4km/h 11mph /  17.7km/h 44% 0in /  0.0mm 121 W/m2
18:57 52.9 °F /  11.6 °C 32.2 °F /  0.1 °C 29.9in /  1011.9hPa West 4mph /  6.4km/h 4mph /  6.4km/h 45% 0in /  0.0mm 107 W/m2
19:02 52.9 °F /  11.6 °C 32.2 °F /  0.1 °C 29.9in /  1011.9hPa WNW 11mph /  17.7km/h 11mph /  17.7km/h 45% 0in /  0.0mm 95 W/m2
19:07 52.3 °F /  11.3 °C 31.6 °F /  -0.2 °C 29.9in /  1011.9hPa West 8.9mph /  14.3km/h 13mph /  20.9km/h 45% 0in /  0.0mm 83 W/m2
19:12 52 °F /  11.1 °C 31.8 °F /  -0.1 °C 29.9in /  1011.9hPa West 6mph /  9.7km/h 9mph /  14.5km/h 46% 0in /  0.0mm 69 W/m2
19:17 51.6 °F /  10.9 °C 31.5 °F /  -0.3 °C 29.9in /  1011.9hPa West 8.1mph /  13km/h 13mph /  20.9km/h 46% 0in /  0.0mm 54 W/m2
19:22 51.4 °F /  10.8 °C 31.3 °F /  -0.4 °C 29.9in /  1011.9hPa West 2.9mph /  4.7km/h 6mph /  9.7km/h 46% 0in /  0.0mm 37 W/m2
19:27 51.1 °F /  10.6 °C 31.1 °F /  -0.5 °C 29.9in /  1011.9hPa West 6.9mph /  11.1km/h 11mph /  17.7km/h 46% 0in /  0.0mm 25 W/m2
19:32 50.5 °F /  10.3 °C 31.1 °F /  -0.5 °C 29.9in /  1011.9hPa West 11mph /  17.7km/h 11mph /  17.7km/h 47% 0in /  0.0mm 21 W/m2
19:37 50.4 °F /  10.2 °C 31.5 °F /  -0.3 °C 29.9in /  1011.9hPa West 2.9mph /  4.7km/h 7mph /  11.3km/h 48% 0in /  0.0mm 19 W/m2
19:42 50.2 °F /  10.1 °C 31.3 °F /  -0.4 °C 29.9in /  1011.9hPa West 2mph /  3.2km/h 7mph /  11.3km/h 48% 0in /  0.0mm 18 W/m2
19:47 49.8 °F /  9.9 °C 30.9 °F /  -0.6 °C 29.9in /  1011.9hPa WNW 6mph /  9.7km/h 9mph /  14.5km/h 48% 0in /  0.0mm 14 W/m2
19:52 49.6 °F /  9.8 °C 30.7 °F /  -0.7 °C 29.9in /  1011.9hPa West 2.9mph /  4.7km/h 6mph /  9.7km/h 48% 0in /  0.0mm 12 W/m2
19:57 49.5 °F /  9.7 °C 31.1 °F /  -0.5 °C 29.9in /  1011.9hPa WSW 4.9mph /  7.9km/h 9mph /  14.5km/h 49% 0in /  0.0mm 11 W/m2
20:02 49.1 °F /  9.5 °C 30.7 °F /  -0.7 °C 29.9in /  1012.2hPa WSW 8.1mph /  13km/h 11mph /  17.7km/h 49% 0in /  0.0mm 9 W/m2
20:08 48.9 °F /  9.4 °C 30.6 °F /  -0.8 °C 29.9in /  1012.2hPa WSW 4.9mph /  7.9km/h 10mph /  16.1km/h 49% 0in /  0.0mm 5 W/m2
20:13 48.7 °F /  9.3 °C 30.9 °F /  -0.6 °C 29.9in /  1012.2hPa WNW 2mph /  3.2km/h 11mph /  17.7km/h 50% 0in /  0.0mm 0 W/m2
20:18 48.6 °F /  9.2 °C 30.7 °F /  -0.7 °C 29.9in /  1012.2hPa WNW 2.9mph /  4.7km/h 8mph /  12.9km/h 50% 0in /  0.0mm 0 W/m2
20:23 48.4 °F /  9.1 °C 31.1 °F /  -0.5 °C 29.9in /  1012.2hPa West 4mph /  6.4km/h 10mph /  16.1km/h 51% 0in /  0.0mm 0 W/m2
20:28 48.2 °F /  9 °C 31.5 °F /  -0.3 °C 29.9in /  1012.2hPa WNW 2.9mph /  4.7km/h 7mph /  11.3km/h 52% 0in /  0.0mm 0 W/m2
20:33 48 °F /  8.9 °C 31.6 °F /  -0.2 °C 29.9in /  1012.2hPa West 8.1mph /  13km/h 9mph /  14.5km/h 53% 0in /  0.0mm 0 W/m2
20:38 47.7 °F /  8.7 °C 31.8 °F /  -0.1 °C 29.9in /  1012.5hPa WSW 6.9mph /  11.1km/h 10mph /  16.1km/h 54% 0in /  0.0mm 0 W/m2
20:43 47.5 °F /  8.6 °C 32.2 °F /  0.1 °C 29.9in /  1012.5hPa West 10.1mph /  16.3km/h 10mph /  16.1km/h 55% 0in /  0.0mm 0 W/m2
20:48 47.1 °F /  8.4 °C 32.2 °F /  0.1 °C 29.9in /  1012.5hPa West 2mph /  3.2km/h 9mph /  14.5km/h 56% 0in /  0.0mm 0 W/m2
20:53 46.9 °F /  8.3 °C 32.5 °F /  0.3 °C 29.9in /  1012.5hPa WSW 4.9mph /  7.9km/h 12mph /  19.3km/h 57% 0in /  0.0mm 0 W/m2
20:58 46.8 °F /  8.2 °C 32.4 °F /  0.2 °C 29.9in /  1012.9hPa WNW 8.9mph /  14.3km/h 11mph /  17.7km/h 57% 0in /  0.0mm 0 W/m2
21:03 46.6 °F /  8.1 °C 32.5 °F /  0.3 °C 29.9in /  1012.9hPa West 8.1mph /  13km/h 11mph /  17.7km/h 58% 0in /  0.0mm 0 W/m2
21:08 46.2 °F /  7.9 °C 32.7 °F /  0.4 °C 29.9in /  1012.9hPa West 6.9mph /  11.1km/h 9mph /  14.5km/h 59% 0in /  0.0mm 0 W/m2
21:13 46 °F /  7.8 °C 32.5 °F /  0.3 °C 29.9in /  1012.9hPa West 6mph /  9.7km/h 7mph /  11.3km/h 59% 0in /  0.0mm 0 W/m2
21:18 45.9 °F /  7.7 °C 32.7 °F /  0.4 °C 29.9in /  1012.9hPa West 4mph /  6.4km/h 9mph /  14.5km/h 60% 0in /  0.0mm 0 W/m2
21:23 45.7 °F /  7.6 °C 32.5 °F /  0.3 °C 29.9in /  1012.9hPa West 4mph /  6.4km/h 11mph /  17.7km/h 60% 0in /  0.0mm 0 W/m2
21:28 45.5 °F /  7.5 °C 32.9 °F /  0.5 °C 29.9in /  1013.2hPa WNW 4mph /  6.4km/h 8mph /  12.9km/h 61% 0in /  0.0mm 0 W/m2
21:33 45.3 °F /  7.4 °C 32.7 °F /  0.4 °C 29.9in /  1013.2hPa WNW 4mph /  6.4km/h 12mph /  19.3km/h 61% 0in /  0.0mm 0 W/m2
21:38 45.1 °F /  7.3 °C 32.5 °F /  0.3 °C 29.9in /  1013.2hPa West 6.9mph /  11.1km/h 9mph /  14.5km/h 61% 0in /  0.0mm 0 W/m2
21:43 45.1 °F /  7.3 °C 32.9 °F /  0.5 °C 29.9in /  1013.2hPa West 4mph /  6.4km/h 11mph /  17.7km/h 62% 0in /  0.0mm 0 W/m2
21:48 45 °F /  7.2 °C 32.7 °F /  0.4 °C 29.9in /  1013.2hPa West 11mph /  17.7km/h 12mph /  19.3km/h 62% 0in /  0.0mm 0 W/m2
21:53 44.8 °F /  7.1 °C 32.5 °F /  0.3 °C 29.9in /  1013.2hPa WNW 2mph /  3.2km/h 11mph /  17.7km/h 62% 0in /  0.0mm 0 W/m2
21:58 44.6 °F /  7 °C 32.7 °F /  0.4 °C 29.9in /  1013.2hPa WSW 2mph /  3.2km/h 12mph /  19.3km/h 63% 0in /  0.0mm 0 W/m2
22:03 44.2 °F /  6.8 °C 32.4 °F /  0.2 °C 29.9in /  1013.5hPa WSW 4mph /  6.4km/h 8mph /  12.9km/h 63% 0in /  0.0mm 0 W/m2
22:09 44.1 °F /  6.7 °C 32.7 °F /  0.4 °C 29.9in /  1013.5hPa WSW 6mph /  9.7km/h 12mph /  19.3km/h 64% 0in /  0.0mm 0 W/m2
22:14 44.1 °F /  6.7 °C 32.7 °F /  0.4 °C 29.9in /  1013.5hPa WNW 4mph /  6.4km/h 9mph /  14.5km/h 64% 0in /  0.0mm 0 W/m2
22:19 43.7 °F /  6.5 °C 32.7 °F /  0.4 °C 29.9in /  1013.5hPa West 6mph /  9.7km/h 7mph /  11.3km/h 65% 0in /  0.0mm 0 W/m2
22:24 43.5 °F /  6.4 °C 32.5 °F /  0.3 °C 29.9in /  1013.5hPa WSW 2mph /  3.2km/h 7mph /  11.3km/h 65% 0in /  0.0mm 0 W/m2
22:29 43.3 °F /  6.3 °C 32.7 °F /  0.4 °C 29.9in /  1013.5hPa WNW 4mph /  6.4km/h 8mph /  12.9km/h 66% 0in /  0.0mm 0 W/m2
22:34 43.3 °F /  6.3 °C 32.7 °F /  0.4 °C 29.9in /  1013.5hPa West 6mph /  9.7km/h 9mph /  14.5km/h 66% 0in /  0.0mm 0 W/m2
22:39 43.2 °F /  6.2 °C 32.5 °F /  0.3 °C 29.9in /  1013.5hPa WNW 2.9mph /  4.7km/h 6mph /  9.7km/h 66% 0in /  0.0mm 0 W/m2
22:44 43 °F /  6.1 °C 32.7 °F /  0.4 °C 29.9in /  1013.5hPa WNW 2.9mph /  4.7km/h 7mph /  11.3km/h 67% 0in /  0.0mm 0 W/m2
22:49 43 °F /  6.1 °C 32.7 °F /  0.4 °C 29.9in /  1013.5hPa WNW 4.9mph /  7.9km/h 8mph /  12.9km/h 67% 0in /  0.0mm 0 W/m2
22:54 43 °F /  6.1 °C 32.7 °F /  0.4 °C 29.9in /  1013.5hPa WSW 2.9mph /  4.7km/h 8mph /  12.9km/h 67% 0in /  0.0mm 0 W/m2
22:59 42.6 °F /  5.9 °C 32.4 °F /  0.2 °C 29.9in /  1013.5hPa West 2.9mph /  4.7km/h 8mph /  12.9km/h 67% 0in /  0.0mm 0 W/m2
23:04 42.6 °F /  5.9 °C 32.4 °F /  0.2 °C 29.9in /  1013.9hPa West 2.9mph /  4.7km/h 9mph /  14.5km/h 67% 0in /  0.0mm 0 W/m2
23:09 42.6 °F /  5.9 °C 32.4 °F /  0.2 °C 29.9in /  1013.9hPa WSW 2.9mph /  4.7km/h 6mph /  9.7km/h 67% 0in /  0.0mm 0 W/m2
23:14 42.4 °F /  5.8 °C 32.7 °F /  0.4 °C 29.9in /  1013.9hPa West 2mph /  3.2km/h 8mph /  12.9km/h 68% 0in /  0.0mm 0 W/m2
23:19 42.3 °F /  5.7 °C 32.5 °F /  0.3 °C 29.9in /  1013.9hPa WNW 0.9mph /  1.4km/h 5mph /  8km/h 68% 0in /  0.0mm 0 W/m2
23:24 42.3 °F /  5.7 °C 32.5 °F /  0.3 °C 29.9in /  1013.9hPa West 2mph /  3.2km/h 7mph /  11.3km/h 68% 0in /  0.0mm 0 W/m2
23:29 42.1 °F /  5.6 °C 32.4 °F /  0.2 °C 29.9in /  1013.9hPa NW 2mph /  3.2km/h 4mph /  6.4km/h 68% 0in /  0.0mm 0 W/m2
23:34 41.9 °F /  5.5 °C 32.5 °F /  0.3 °C 29.9in /  1013.9hPa West 2.9mph /  4.7km/h 3mph /  4.8km/h 69% 0in /  0.0mm 0 W/m2
23:39 41.7 °F /  5.4 °C 32.4 °F /  0.2 °C 29.9in /  1013.9hPa West 0.9mph /  1.4km/h 4mph /  6.4km/h 69% 0in /  0.0mm 0 W/m2
23:44 41.5 °F /  5.3 °C 32.2 °F /  0.1 °C 29.9in /  1013.9hPa Calm   2mph /  3.2km/h 69% 0in /  0.0mm 0 W/m2
23:49 41.4 °F /  5.2 °C 32 °F /  0 °C 29.9in /  1013.9hPa Calm   1mph /  1.6km/h 69% 0in /  0.0mm 0 W/m2
23:54 41 °F /  5 °C 32 °F /  0 °C 29.9in /  1013.9hPa West 0.9mph /  1.4km/h 2mph /  3.2km/h 70% 0in /  0.0mm 0 W/m2
23:59 40.8 °F /  4.9 °C 31.8 °F /  -0.1 °C 29.9in /  1013.9hPa West 0.9mph /  1.4km/h 2mph /  3.2km/h 70% 0in /  0.0mm 0 W/m2
Juneau County Weather
Compliments of Weather Underground - 4 mb